sensor_id;sensor_type;location;lat;lon;timestamp;P1;durP1;ratioP1;P2;durP2;ratioP2
31990;SDS011;18508;49.386;8.370;2022-09-17T00:01:45;1.42;;;0.80;;
31990;SDS011;18508;49.386;8.370;2022-09-17T00:04:14;2.38;;;1.10;;
31990;SDS011;18508;49.386;8.370;2022-09-17T00:06:50;1.98;;;0.60;;
31990;SDS011;18508;49.386;8.370;2022-09-17T00:09:19;1.52;;;1.15;;
31990;SDS011;18508;49.386;8.370;2022-09-17T00:11:49;1.58;;;0.70;;
31990;SDS011;18508;49.386;8.370;2022-09-17T00:14:25;3.22;;;0.80;;
31990;SDS011;18508;49.386;8.370;2022-09-17T00:17:08;1.63;;;0.70;;
31990;SDS011;18508;49.386;8.370;2022-09-17T00:19:38;3.55;;;0.75;;
31990;SDS011;18508;49.386;8.370;2022-09-17T00:22:23;3.00;;;0.63;;
31990;SDS011;18508;49.386;8.370;2022-09-17T00:24:54;3.70;;;0.85;;
31990;SDS011;18508;49.386;8.370;2022-09-17T00:27:25;3.05;;;0.85;;
31990;SDS011;18508;49.386;8.370;2022-09-17T00:29:53;1.33;;;0.77;;
31990;SDS011;18508;49.386;8.370;2022-09-17T00:32:22;2.33;;;0.77;;
31990;SDS011;18508;49.386;8.370;2022-09-17T00:34:53;2.78;;;0.90;;
31990;SDS011;18508;49.386;8.370;2022-09-17T00:37:25;1.90;;;0.63;;
31990;SDS011;18508;49.386;8.370;2022-09-17T00:39:53;4.78;;;1.27;;
31990;SDS011;18508;49.386;8.370;2022-09-17T00:42:22;1.88;;;0.80;;
31990;SDS011;18508;49.386;8.370;2022-09-17T00:44:52;4.18;;;0.90;;
31990;SDS011;18508;49.386;8.370;2022-09-17T00:47:23;3.88;;;0.80;;
31990;SDS011;18508;49.386;8.370;2022-09-17T00:49:57;3.13;;;1.00;;
31990;SDS011;18508;49.386;8.370;2022-09-17T00:52:33;1.85;;;0.90;;
31990;SDS011;18508;49.386;8.370;2022-09-17T00:55:06;1.55;;;0.82;;
31990;SDS011;18508;49.386;8.370;2022-09-17T00:57:45;1.45;;;0.90;;
31990;SDS011;18508;49.386;8.370;2022-09-17T01:00:22;1.98;;;0.75;;
31990;SDS011;18508;49.386;8.370;2022-09-17T01:02:52;2.35;;;0.85;;
31990;SDS011;18508;49.386;8.370;2022-09-17T01:05:24;1.60;;;0.90;;
31990;SDS011;18508;49.386;8.370;2022-09-17T01:08:01;2.38;;;1.10;;
31990;SDS011;18508;49.386;8.370;2022-09-17T01:10:44;1.77;;;0.77;;
31990;SDS011;18508;49.386;8.370;2022-09-17T01:13:30;1.40;;;0.85;;
31990;SDS011;18508;49.386;8.370;2022-09-17T01:16:11;4.30;;;1.10;;
31990;SDS011;18508;49.386;8.370;2022-09-17T01:18:53;1.58;;;0.80;;
31990;SDS011;18508;49.386;8.370;2022-09-17T01:21:42;2.15;;;1.10;;
31990;SDS011;18508;49.386;8.370;2022-09-17T01:24:32;3.60;;;1.00;;
31990;SDS011;18508;49.386;8.370;2022-09-17T01:33:39;2.45;;;1.30;;
31990;SDS011;18508;49.386;8.370;2022-09-17T01:36:23;2.17;;;1.00;;
31990;SDS011;18508;49.386;8.370;2022-09-17T01:39:06;5.43;;;1.52;;
31990;SDS011;18508;49.386;8.370;2022-09-17T01:41:40;3.92;;;1.27;;
31990;SDS011;18508;49.386;8.370;2022-09-17T01:44:20;2.53;;;1.40;;
31990;SDS011;18508;49.386;8.370;2022-09-17T01:46:55;3.22;;;1.48;;
31990;SDS011;18508;49.386;8.370;2022-09-17T01:49:31;2.95;;;1.20;;
31990;SDS011;18508;49.386;8.370;2022-09-17T01:52:04;2.28;;;1.30;;
31990;SDS011;18508;49.386;8.370;2022-09-17T01:54:36;3.05;;;1.65;;
31990;SDS011;18508;49.386;8.370;2022-09-17T01:57:11;2.40;;;1.45;;
31990;SDS011;18508;49.386;8.370;2022-09-17T01:59:44;3.00;;;1.20;;
31990;SDS011;18508;49.386;8.370;2022-09-17T02:02:17;3.60;;;1.10;;
31990;SDS011;18508;49.386;8.370;2022-09-17T02:04:56;3.22;;;1.40;;
31990;SDS011;18508;49.386;8.370;2022-09-17T02:07:30;1.95;;;1.17;;
31990;SDS011;18508;49.386;8.370;2022-09-17T02:10:05;3.55;;;1.58;;
31990;SDS011;18508;49.386;8.370;2022-09-17T02:12:38;2.80;;;1.70;;
31990;SDS011;18508;49.386;8.370;2022-09-17T02:15:11;2.90;;;1.38;;
31990;SDS011;18508;49.386;8.370;2022-09-17T02:17:51;4.38;;;1.73;;
31990;SDS011;18508;49.386;8.370;2022-09-17T02:20:25;5.13;;;1.60;;
31990;SDS011;18508;49.386;8.370;2022-09-17T02:23:04;4.85;;;1.88;;
31990;SDS011;18508;49.386;8.370;2022-09-17T02:25:39;6.00;;;1.80;;
31990;SDS011;18508;49.386;8.370;2022-09-17T02:28:15;4.93;;;2.03;;
31990;SDS011;18508;49.386;8.370;2022-09-17T02:30:50;3.85;;;1.80;;
